createdAt,value
2023-05-14T00:01:18.129Z,11.25
2023-05-14T00:03:46.507Z,10.15
2023-05-14T00:06:14.878Z,10.70
2023-05-14T00:08:43.415Z,11.10
2023-05-14T00:11:13.148Z,11.63
2023-05-14T00:13:41.502Z,13.43
2023-05-14T00:16:09.921Z,13.38
2023-05-14T00:18:38.442Z,10.50
2023-05-14T00:21:07.892Z,11.18
2023-05-14T00:23:36.538Z,10.60
2023-05-14T00:26:05.348Z,12.05
2023-05-14T00:28:35.060Z,10.98
2023-05-14T00:31:03.750Z,11.95
2023-05-14T00:33:32.366Z,14.15
2023-05-14T00:36:00.730Z,11.73
2023-05-14T00:38:29.145Z,11.52
2023-05-14T00:40:57.914Z,11.32
2023-05-14T00:43:26.486Z,14.00
2023-05-14T00:45:56.504Z,11.70
2023-05-14T00:48:26.029Z,10.60
2023-05-14T00:50:54.625Z,13.60
2023-05-14T00:53:23.404Z,12.00
2023-05-14T00:55:52.265Z,12.30
2023-05-14T00:58:20.933Z,11.65
2023-05-14T01:00:49.315Z,10.85
2023-05-14T01:03:19.200Z,12.50
2023-05-14T01:06:05.205Z,13.95
2023-05-14T01:08:41.647Z,12.82
2023-05-14T01:11:21.277Z,11.65
2023-05-14T01:14:01.124Z,11.45
2023-05-14T01:16:31.989Z,11.95
2023-05-14T01:19:03.314Z,11.45
2023-05-14T01:21:38.801Z,14.13
2023-05-14T01:24:08.028Z,16.20
2023-05-14T01:26:37.732Z,13.57
2023-05-14T01:29:14.764Z,14.27
2023-05-14T01:32:33.471Z,14.18
2023-05-14T01:35:02.692Z,12.70
2023-05-14T01:37:33.773Z,14.30
2023-05-14T01:40:03.149Z,13.82
2023-05-14T01:42:32.261Z,12.60
2023-05-14T01:45:00.927Z,18.45
2023-05-14T01:47:29.445Z,15.18
2023-05-14T01:49:57.865Z,13.93
2023-05-14T01:52:26.967Z,17.17
2023-05-14T01:54:58.317Z,13.50
2023-05-14T01:57:26.805Z,14.95
2023-05-14T01:59:55.178Z,14.80
2023-05-14T02:02:23.655Z,16.05
2023-05-14T02:04:52.432Z,15.80
2023-05-14T02:07:20.872Z,12.40
2023-05-14T02:09:49.246Z,14.30
2023-05-14T02:12:18.996Z,15.48
2023-05-14T02:14:47.305Z,16.00
2023-05-14T02:17:16.550Z,15.57
2023-05-14T02:19:45.511Z,14.93
2023-05-14T02:22:14.676Z,15.07
2023-05-14T02:24:43.048Z,13.43
2023-05-14T02:27:13.038Z,15.35
2023-05-14T02:29:42.798Z,14.20
2023-05-14T02:32:11.172Z,17.13
2023-05-14T02:34:39.690Z,18.58
2023-05-14T02:37:08.220Z,17.90
2023-05-14T02:39:36.661Z,17.50
2023-05-14T02:42:05.610Z,17.40
2023-05-14T02:44:34.068Z,18.00
2023-05-14T02:47:04.185Z,16.75
2023-05-14T02:49:32.692Z,17.25
2023-05-14T02:52:01.735Z,18.58
2023-05-14T02:54:30.464Z,19.88
2023-05-14T02:56:58.958Z,17.33
2023-05-14T02:59:27.841Z,14.25
2023-05-14T03:01:56.954Z,15.50
2023-05-14T03:04:27.194Z,17.67
2023-05-14T03:06:55.656Z,17.80
2023-05-14T03:09:23.986Z,20.08
2023-05-14T03:11:52.338Z,21.63
2023-05-14T03:14:20.729Z,17.23
2023-05-14T03:16:49.268Z,17.50
2023-05-14T03:19:17.696Z,20.38
2023-05-14T03:21:47.551Z,17.20
2023-05-14T03:24:16.191Z,18.42
2023-05-14T03:26:45.985Z,18.20
2023-05-14T03:29:17.975Z,19.48
2023-05-14T03:31:46.420Z,17.90
2023-05-14T03:34:14.855Z,22.38
2023-05-14T03:36:44.429Z,17.40
2023-05-14T03:39:15.551Z,16.65
2023-05-14T03:41:43.977Z,18.42
2023-05-14T03:44:12.417Z,18.35
2023-05-14T03:46:40.920Z,19.30
2023-05-14T03:49:09.358Z,19.70
2023-05-14T03:51:37.767Z,18.50
2023-05-14T03:54:07.753Z,23.60
2023-05-14T03:56:37.738Z,18.50
2023-05-14T03:59:06.252Z,18.30
2023-05-14T04:01:34.945Z,20.27
2023-05-14T04:04:03.375Z,18.75
2023-05-14T04:06:32.875Z,19.80
2023-05-14T04:09:04.109Z,17.33
2023-05-14T04:11:32.482Z,17.58
2023-05-14T04:14:02.886Z,19.40
2023-05-14T04:16:31.562Z,22.75
2023-05-14T04:19:02.312Z,19.35
2023-05-14T04:21:30.764Z,21.67
2023-05-14T04:23:59.077Z,21.67
2023-05-14T04:26:27.788Z,21.00
2023-05-14T04:28:56.235Z,20.55
2023-05-14T04:31:26.864Z,19.55
2023-05-14T04:33:55.401Z,20.77
2023-05-14T04:36:23.907Z,22.60
2023-05-14T04:38:52.358Z,22.70
2023-05-14T04:41:21.270Z,19.35
2023-05-14T04:43:51.009Z,19.60
2023-05-14T04:46:20.594Z,19.15
2023-05-14T04:48:51.771Z,20.02
2023-05-14T04:51:20.438Z,16.25
2023-05-14T04:53:49.178Z,17.63
2023-05-14T04:56:18.995Z,17.38
2023-05-14T04:58:47.453Z,13.23
2023-05-14T05:01:16.072Z,14.48
2023-05-14T05:03:44.772Z,13.38
2023-05-14T05:06:14.540Z,13.23
2023-05-14T05:08:43.117Z,15.20
2023-05-14T05:11:11.579Z,16.38
2023-05-14T05:13:39.916Z,15.65
2023-05-14T05:16:08.555Z,16.42
2023-05-14T05:18:39.138Z,16.98
2023-05-14T05:21:07.811Z,17.27
2023-05-14T05:23:37.777Z,19.25
2023-05-14T05:26:06.664Z,18.30
2023-05-14T05:28:34.979Z,17.48
2023-05-14T05:31:03.422Z,18.58
2023-05-14T05:33:32.088Z,19.25
2023-05-14T05:36:00.399Z,18.95
2023-05-14T05:38:28.737Z,20.27
2023-05-14T05:40:58.413Z,19.65
2023-05-14T05:43:28.419Z,19.33
2023-05-14T05:45:56.901Z,16.75
2023-05-14T05:48:25.549Z,14.23
2023-05-14T05:50:53.954Z,14.98
2023-05-14T05:53:22.343Z,14.27
2023-05-14T05:55:51.482Z,12.18
2023-05-14T05:58:21.373Z,11.90
2023-05-14T06:00:49.929Z,11.57
2023-05-14T06:03:18.594Z,12.90
2023-05-14T06:06:38.144Z,10.55
2023-05-14T06:09:06.886Z,12.38
2023-05-14T06:11:35.383Z,14.73
2023-05-14T06:14:05.776Z,12.77
2023-05-14T06:16:34.906Z,11.13
2023-05-14T06:19:03.387Z,12.40
2023-05-14T06:21:31.767Z,10.80
2023-05-14T06:24:00.188Z,11.93
2023-05-14T06:26:28.566Z,10.45
2023-05-14T06:28:56.970Z,10.55
2023-05-14T06:31:26.791Z,11.35
2023-05-14T06:33:55.412Z,10.85
2023-05-14T06:36:23.781Z,10.65
2023-05-14T06:38:52.069Z,12.88
2023-05-14T06:41:21.157Z,13.30
2023-05-14T06:43:49.520Z,11.18
2023-05-14T06:46:17.845Z,11.35
2023-05-14T06:48:47.863Z,10.07
2023-05-14T06:51:18.942Z,10.68
2023-05-14T06:53:48.884Z,9.93
2023-05-14T06:56:17.318Z,13.70
2023-05-14T06:58:45.713Z,14.43
2023-05-14T07:01:14.143Z,14.27
2023-05-14T07:03:42.784Z,15.20
2023-05-14T07:06:13.708Z,16.85
2023-05-14T07:08:42.152Z,18.55
2023-05-14T07:11:10.444Z,18.15
2023-05-14T07:13:38.803Z,16.10
2023-05-14T07:16:08.973Z,17.70
2023-05-14T07:18:37.704Z,20.08
2023-05-14T07:21:07.112Z,19.17
2023-05-14T07:23:38.206Z,18.75
2023-05-14T07:26:07.533Z,17.27
2023-05-14T07:28:36.465Z,20.92
2023-05-14T07:31:08.796Z,20.23
2023-05-14T07:33:37.469Z,19.45
2023-05-14T07:36:06.557Z,21.27
2023-05-14T07:38:36.420Z,24.15
2023-05-14T07:41:05.328Z,24.00
2023-05-14T07:43:33.670Z,23.90
2023-05-14T07:46:02.036Z,26.23
2023-05-14T07:48:30.409Z,25.27
2023-05-14T07:50:58.826Z,28.50
2023-05-14T07:53:27.150Z,26.90
2023-05-14T07:55:56.892Z,26.42
2023-05-14T07:58:26.733Z,27.70
2023-05-14T08:00:56.489Z,27.10
2023-05-14T08:03:24.943Z,29.42
2023-05-14T08:05:53.740Z,28.83
2023-05-14T08:08:22.076Z,27.55
2023-05-14T08:10:50.472Z,26.90
2023-05-14T08:13:20.523Z,27.58
2023-05-14T08:15:48.959Z,30.00
2023-05-14T08:18:17.301Z,25.48
2023-05-14T08:20:45.818Z,27.58
2023-05-14T08:23:14.203Z,27.95
2023-05-14T08:25:42.575Z,28.13
2023-05-14T08:28:10.902Z,26.38
2023-05-14T08:30:40.597Z,27.95
2023-05-14T08:33:09.359Z,30.08
2023-05-14T08:35:37.807Z,28.90
2023-05-14T08:38:06.438Z,28.27
2023-05-14T08:40:36.433Z,28.65
2023-05-14T08:43:07.002Z,26.85
2023-05-14T08:45:37.954Z,25.60
2023-05-14T08:48:09.720Z,25.75
2023-05-14T08:50:38.338Z,27.38
2023-05-14T08:53:07.815Z,27.75
2023-05-14T08:55:37.851Z,27.40
2023-05-14T08:58:06.180Z,26.58
2023-05-14T09:00:34.771Z,29.35
2023-05-14T09:03:05.017Z,26.50
2023-05-14T09:05:34.897Z,24.55
2023-05-14T09:08:03.393Z,27.60
2023-05-14T09:10:32.442Z,24.67
2023-05-14T09:13:01.028Z,25.35
2023-05-14T09:15:30.559Z,23.73
2023-05-14T09:17:59.055Z,25.77
2023-05-14T09:20:28.444Z,27.88
2023-05-14T09:22:59.860Z,27.20
2023-05-14T09:25:29.019Z,28.30
2023-05-14T09:27:58.964Z,28.30
2023-05-14T09:30:27.887Z,25.40
2023-05-14T09:32:56.296Z,28.85
2023-05-14T09:35:26.101Z,28.75
2023-05-14T09:37:55.854Z,30.45
2023-05-14T09:40:25.969Z,30.60
2023-05-14T09:42:54.611Z,29.95
2023-05-14T09:45:24.496Z,27.50
2023-05-14T09:47:53.316Z,29.40
2023-05-14T09:50:22.633Z,28.27
2023-05-14T09:52:51.273Z,30.02
2023-05-14T09:55:21.154Z,26.42
2023-05-14T09:57:50.954Z,27.85
2023-05-14T10:00:19.976Z,28.00
2023-05-14T10:02:49.447Z,29.90
2023-05-14T10:05:19.030Z,28.90
2023-05-14T10:07:49.539Z,28.27
2023-05-14T10:10:21.005Z,27.10
2023-05-14T10:12:54.120Z,27.38
2023-05-14T10:15:30.917Z,28.60
2023-05-14T10:18:04.771Z,27.80
2023-05-14T10:20:34.042Z,29.45
2023-05-14T10:23:02.722Z,28.40
2023-05-14T10:25:31.693Z,27.67
2023-05-14T10:28:02.003Z,28.70
2023-05-14T10:30:30.448Z,26.63
2023-05-14T10:33:09.381Z,27.42
2023-05-14T10:35:53.478Z,26.10
2023-05-14T10:38:24.037Z,23.83
2023-05-14T10:40:54.211Z,26.30
2023-05-14T10:43:27.919Z,28.35
2023-05-14T10:45:57.340Z,26.17
2023-05-14T10:48:26.954Z,28.75
2023-05-14T10:50:56.138Z,27.02
2023-05-14T10:53:33.191Z,27.20
2023-05-14T10:56:05.840Z,30.85
2023-05-14T10:58:38.430Z,27.60
2023-05-14T11:01:08.808Z,25.23
2023-05-14T11:03:42.338Z,26.63
2023-05-14T11:06:12.445Z,24.13
2023-05-14T11:08:41.590Z,22.92
2023-05-14T11:11:10.972Z,23.73
2023-05-14T11:13:42.387Z,25.48
2023-05-14T11:16:22.692Z,24.85
2023-05-14T11:19:02.012Z,26.52
2023-05-14T11:21:31.559Z,23.98
2023-05-14T11:24:01.153Z,24.95
2023-05-14T11:26:30.154Z,23.70
2023-05-14T11:29:00.011Z,23.35
2023-05-14T11:31:28.809Z,21.08
2023-05-14T11:33:57.274Z,20.70
2023-05-14T11:36:25.709Z,24.58
2023-05-14T11:38:54.023Z,21.27
2023-05-14T11:41:22.974Z,23.20
2023-05-14T11:43:51.703Z,22.08
2023-05-14T11:46:22.291Z,23.08
2023-05-14T11:48:50.780Z,20.27
2023-05-14T11:51:19.133Z,18.30
2023-05-14T11:53:47.958Z,20.35
2023-05-14T11:56:16.368Z,20.67
2023-05-14T11:58:49.109Z,17.73
2023-05-14T12:01:17.880Z,19.38
2023-05-14T12:03:47.844Z,19.35
2023-05-14T12:06:16.447Z,16.75
2023-05-14T12:08:44.841Z,16.30
2023-05-14T12:11:13.211Z,19.25
2023-05-14T12:13:41.609Z,15.32
2023-05-14T12:16:10.134Z,18.35
2023-05-14T12:18:38.753Z,19.77
2023-05-14T12:21:09.001Z,15.82
2023-05-14T12:23:39.829Z,17.50
2023-05-14T12:26:09.840Z,17.25
2023-05-14T12:28:43.071Z,15.68
2023-05-14T12:31:11.777Z,13.02
2023-05-14T12:33:40.474Z,16.25
2023-05-14T12:36:21.269Z,13.90
2023-05-14T12:38:50.693Z,14.57
2023-05-14T12:41:19.251Z,15.80
2023-05-14T12:43:49.907Z,15.55
2023-05-14T12:46:18.600Z,16.63
2023-05-14T12:48:47.123Z,15.50
2023-05-14T12:51:16.808Z,14.30
2023-05-14T12:53:45.282Z,17.20
2023-05-14T12:56:14.834Z,15.23
2023-05-14T12:58:43.216Z,12.68
2023-05-14T13:01:11.606Z,12.00
2023-05-14T13:03:40.009Z,13.18
2023-05-14T13:06:09.070Z,12.32
2023-05-14T13:08:40.112Z,11.27
2023-05-14T13:11:09.337Z,9.48
2023-05-14T13:13:37.980Z,10.13
2023-05-14T13:16:07.293Z,12.43
2023-05-14T13:18:35.885Z,11.02
2023-05-14T13:21:06.322Z,10.70
2023-05-14T13:23:34.671Z,11.43
2023-05-14T13:26:04.458Z,11.68
2023-05-14T13:28:32.860Z,12.50
2023-05-14T13:31:07.304Z,11.13
2023-05-14T13:36:05.626Z,11.60
2023-05-14T13:38:35.383Z,11.98
2023-05-14T13:41:05.528Z,13.40
2023-05-14T13:43:34.848Z,10.25
2023-05-14T13:46:04.873Z,10.90
2023-05-14T13:48:33.779Z,10.35
2023-05-14T13:51:02.139Z,12.13
2023-05-14T13:53:30.720Z,11.38
2023-05-14T13:56:01.351Z,14.02
2023-05-14T13:58:31.219Z,13.13
2023-05-14T14:00:59.525Z,11.10
2023-05-14T14:03:27.892Z,10.82
2023-05-14T14:05:56.274Z,10.93
2023-05-14T14:08:24.802Z,11.10
2023-05-14T14:10:55.090Z,12.27
2023-05-14T14:13:24.222Z,9.55
2023-05-14T14:15:54.049Z,8.98
2023-05-14T14:18:22.483Z,9.50
2023-05-14T14:20:51.049Z,9.82
2023-05-14T14:23:19.453Z,7.70
2023-05-14T14:25:48.020Z,7.80
2023-05-14T14:28:16.577Z,7.18
2023-05-14T14:30:45.034Z,6.68
2023-05-14T14:33:14.916Z,7.15
2023-05-14T14:35:43.340Z,7.88
2023-05-14T14:38:12.391Z,7.30
2023-05-14T14:40:40.800Z,9.10
2023-05-14T14:43:09.153Z,7.55
2023-05-14T14:45:37.702Z,7.53
2023-05-14T14:48:25.788Z,7.97
2023-05-14T14:50:54.595Z,8.70
2023-05-14T14:53:24.124Z,8.80
2023-05-14T14:55:52.941Z,8.52
2023-05-14T14:58:21.995Z,9.05
2023-05-14T15:00:52.227Z,7.05
2023-05-14T15:03:21.167Z,7.38
2023-05-14T15:05:51.679Z,6.45
2023-05-14T15:08:20.730Z,6.20
2023-05-14T15:10:49.113Z,6.63
2023-05-14T15:13:17.471Z,8.43
2023-05-14T15:15:45.843Z,7.75
2023-05-14T15:18:14.274Z,8.27
2023-05-14T15:20:42.898Z,7.43
2023-05-14T15:23:12.736Z,7.45
2023-05-14T15:25:41.373Z,6.90
2023-05-14T15:28:10.093Z,7.35
2023-05-14T15:30:38.458Z,7.43
2023-05-14T15:33:08.640Z,7.80
2023-05-14T15:35:37.491Z,7.78
2023-05-14T15:38:05.863Z,9.45
2023-05-14T15:40:35.815Z,7.35
2023-05-14T15:43:04.361Z,8.18
2023-05-14T15:45:32.884Z,8.52
2023-05-14T15:48:02.949Z,8.65
2023-05-14T15:50:31.684Z,8.98
2023-05-14T15:53:01.293Z,9.85
2023-05-14T15:55:30.907Z,8.93
2023-05-14T15:58:00.725Z,11.10
2023-05-14T16:00:29.144Z,9.68
2023-05-14T16:02:57.576Z,8.75
2023-05-14T16:05:26.106Z,9.98
2023-05-14T16:07:54.850Z,9.93
2023-05-14T16:10:23.795Z,11.57
2023-05-14T16:12:52.355Z,11.43
2023-05-14T16:15:22.087Z,9.55
2023-05-14T16:17:50.577Z,8.95
2023-05-14T16:20:19.316Z,8.43
2023-05-14T16:22:47.970Z,8.55
2023-05-14T16:25:18.494Z,9.13
2023-05-14T16:27:47.297Z,10.05
2023-05-14T16:30:15.792Z,8.63
2023-05-14T16:32:48.419Z,7.32
2023-05-14T16:35:17.321Z,8.60
2023-05-14T16:37:45.977Z,7.53
2023-05-14T16:40:15.971Z,7.05
2023-05-14T16:42:45.503Z,7.00
2023-05-14T16:45:14.946Z,6.88
2023-05-14T16:47:44.760Z,7.10
2023-05-14T16:50:13.408Z,7.85
2023-05-14T16:52:42.101Z,8.07
2023-05-14T16:55:10.799Z,5.97
2023-05-14T16:57:39.167Z,4.97
2023-05-14T17:00:09.340Z,5.78
2023-05-14T17:02:38.505Z,5.10
2023-05-14T17:05:09.529Z,7.07
2023-05-14T17:07:40.019Z,7.00
2023-05-14T17:10:09.424Z,7.68
2023-05-14T17:12:37.944Z,6.57
2023-05-14T17:15:08.111Z,11.55
2023-05-14T17:17:36.723Z,6.22
2023-05-14T17:20:06.817Z,9.63
2023-05-14T17:22:38.906Z,12.05
2023-05-14T17:25:09.067Z,11.70
2023-05-14T17:27:37.757Z,12.90
2023-05-14T17:30:07.354Z,12.45
2023-05-14T17:32:36.296Z,11.85
2023-05-14T17:35:05.375Z,12.98
2023-05-14T17:37:37.003Z,10.73
2023-05-14T17:40:06.456Z,11.10
2023-05-14T17:42:34.973Z,11.90
2023-05-14T17:45:03.331Z,12.10
2023-05-14T17:47:32.110Z,12.18
2023-05-14T17:50:00.555Z,10.25
2023-05-14T17:52:28.929Z,12.02
2023-05-14T17:54:58.886Z,10.88
2023-05-14T17:57:27.309Z,12.93
2023-05-14T17:59:55.768Z,11.40
2023-05-14T18:02:24.210Z,12.68
2023-05-14T18:04:52.545Z,11.05
2023-05-14T18:07:22.933Z,11.02
2023-05-14T18:09:51.584Z,10.48
2023-05-14T18:12:21.499Z,13.82
2023-05-14T18:14:49.907Z,15.48
2023-05-14T18:17:18.397Z,11.15
2023-05-14T18:19:47.082Z,13.10
2023-05-14T18:22:15.977Z,11.57
2023-05-14T18:24:45.097Z,10.60
2023-05-14T18:27:13.606Z,9.23
2023-05-14T18:29:43.781Z,9.68
2023-05-14T18:32:12.149Z,10.68
2023-05-14T18:34:40.669Z,10.80
2023-05-14T18:37:09.826Z,9.63
2023-05-14T18:39:38.213Z,11.48
2023-05-14T18:42:07.478Z,10.70
2023-05-14T18:44:36.133Z,9.82
2023-05-14T18:47:06.367Z,11.18
2023-05-14T18:49:34.763Z,10.38
2023-05-14T18:52:03.644Z,10.65
2023-05-14T18:54:32.275Z,12.40
2023-05-14T18:57:04.700Z,10.23
2023-05-14T18:59:33.166Z,13.32
2023-05-14T19:02:01.836Z,10.23
2023-05-14T19:04:33.425Z,9.82
2023-05-14T19:07:02.027Z,9.90
2023-05-14T19:09:30.412Z,9.45
2023-05-14T19:11:59.057Z,10.55
2023-05-14T19:14:27.697Z,10.45
2023-05-14T19:16:57.123Z,9.32
2023-05-14T19:19:25.562Z,8.93
2023-05-14T19:21:55.372Z,10.07
2023-05-14T19:24:23.816Z,10.68
2023-05-14T19:26:53.687Z,10.88
2023-05-14T19:29:22.180Z,9.50
2023-05-14T19:31:50.854Z,12.85
2023-05-14T19:34:19.224Z,10.82
2023-05-14T19:36:47.695Z,12.50
2023-05-14T19:39:17.385Z,12.80
2023-05-14T19:41:45.881Z,12.38
2023-05-14T19:44:14.480Z,14.80
2023-05-14T19:46:43.355Z,15.60
2023-05-14T19:49:13.255Z,12.80
2023-05-14T19:51:42.256Z,16.35
2023-05-14T19:54:11.453Z,14.13
2023-05-14T20:25:57.855Z,12.18
2023-05-14T20:44:05.530Z,13.65
2023-05-14T20:53:44.424Z,12.55
2023-05-14T20:56:23.144Z,13.07
2023-05-14T20:58:53.209Z,12.68
2023-05-14T21:01:22.789Z,12.15
2023-05-14T21:03:53.937Z,12.85
2023-05-14T21:06:23.781Z,12.25
2023-05-14T21:08:53.063Z,11.98
2023-05-14T21:11:25.128Z,11.20
2023-05-14T21:13:57.283Z,13.05
2023-05-14T21:16:26.395Z,10.77
2023-05-14T21:19:05.594Z,12.68
2023-05-14T21:21:34.804Z,12.77
2023-05-14T21:24:03.954Z,14.95
2023-05-14T21:26:33.752Z,13.77
2023-05-14T21:29:07.353Z,16.23
2023-05-14T21:31:37.278Z,14.05
2023-05-14T21:34:07.840Z,16.30
2023-05-14T21:36:36.320Z,13.82
2023-05-14T21:39:05.421Z,15.10
2023-05-14T21:41:33.865Z,12.35
2023-05-14T21:44:02.213Z,13.82
2023-05-14T21:46:31.267Z,13.73
2023-05-14T21:48:59.726Z,13.25
2023-05-14T21:51:29.806Z,14.45
2023-05-14T21:53:58.181Z,15.07
2023-05-14T21:56:27.486Z,13.93
2023-05-14T21:58:55.972Z,15.10
2023-05-14T22:01:24.830Z,14.55
2023-05-14T22:03:54.154Z,14.88
2023-05-14T22:06:23.668Z,15.45
2023-05-14T22:08:53.380Z,15.40
2023-05-14T22:11:22.324Z,16.52
2023-05-14T22:13:50.708Z,15.85
2023-05-14T22:16:19.099Z,22.70
2023-05-14T22:18:47.909Z,20.85
2023-05-14T22:21:16.349Z,18.92
2023-05-14T22:23:45.273Z,23.25
2023-05-14T22:26:15.906Z,22.38
2023-05-14T22:28:44.303Z,21.60
2023-05-14T22:31:12.692Z,21.33
2023-05-14T22:33:41.275Z,24.30
2023-05-14T22:36:10.667Z,20.10
2023-05-14T22:38:41.106Z,21.48
2023-05-14T22:41:09.510Z,22.88
2023-05-14T22:43:39.208Z,22.10
2023-05-14T22:46:07.666Z,22.33
2023-05-14T22:48:36.162Z,20.27
2023-05-14T22:51:04.578Z,22.00
2023-05-14T22:53:32.924Z,21.75
2023-05-14T22:56:01.263Z,20.85
2023-05-14T22:58:29.663Z,23.42
2023-05-14T23:00:59.724Z,25.00
2023-05-14T23:03:28.517Z,23.20
2023-05-14T23:05:56.887Z,22.88
2023-05-14T23:08:25.225Z,23.63
2023-05-14T23:10:53.743Z,24.77
2023-05-14T23:13:22.198Z,25.38
2023-05-14T23:15:50.758Z,25.58
2023-05-14T23:18:20.913Z,24.08
2023-05-14T23:20:49.630Z,25.45
2023-05-14T23:23:18.038Z,25.25
2023-05-14T23:25:46.377Z,25.83
2023-05-14T23:28:14.924Z,26.77
2023-05-14T23:30:43.314Z,28.23
2023-05-14T23:33:11.770Z,28.85
2023-05-14T23:35:42.406Z,23.52
2023-05-14T23:38:10.821Z,28.58
2023-05-14T23:40:39.125Z,28.02
2023-05-14T23:43:07.515Z,28.13
2023-05-14T23:45:36.224Z,32.90
2023-05-14T23:48:05.410Z,30.23
2023-05-14T23:50:33.826Z,30.10
2023-05-14T23:53:03.804Z,27.65
2023-05-14T23:55:32.254Z,29.80
2023-05-14T23:58:00.692Z,30.33
